sensor_id;sensor_type;location;lat;lon;timestamp;P1;durP1;ratioP1;P2;durP2;ratioP2
59960;SDS011;55902;-37.980;-63.602;2023-06-24T00:00:42;1.83;;;1.60;;
59960;SDS011;55902;-37.980;-63.602;2023-06-24T00:03:09;3.05;;;1.67;;
59960;SDS011;55902;-37.980;-63.602;2023-06-24T00:05:42;2.45;;;1.90;;
59960;SDS011;55902;-37.980;-63.602;2023-06-24T00:08:15;2.85;;;2.20;;
59960;SDS011;55902;-37.980;-63.602;2023-06-24T00:10:48;2.20;;;2.00;;
59960;SDS011;55902;-37.980;-63.602;2023-06-24T00:13:16;2.33;;;1.70;;
59960;SDS011;55902;-37.980;-63.602;2023-06-24T00:15:43;3.10;;;1.90;;
59960;SDS011;55902;-37.980;-63.602;2023-06-24T00:18:10;2.00;;;1.70;;
59960;SDS011;55902;-37.980;-63.602;2023-06-24T00:30:43;11.98;;;2.50;;
59960;SDS011;55902;-37.980;-63.602;2023-06-24T00:33:10;11.82;;;2.60;;
59960;SDS011;55902;-37.980;-63.602;2023-06-24T00:35:39;8.68;;;3.08;;
59960;SDS011;55902;-37.980;-63.602;2023-06-24T00:38:06;11.98;;;6.20;;
59960;SDS011;55902;-37.980;-63.602;2023-06-24T00:40:33;12.43;;;10.32;;
59960;SDS011;55902;-37.980;-63.602;2023-06-24T00:43:01;12.75;;;10.75;;
59960;SDS011;55902;-37.980;-63.602;2023-06-24T00:45:29;10.95;;;9.85;;
59960;SDS011;55902;-37.980;-63.602;2023-06-24T00:47:57;20.25;;;15.98;;
59960;SDS011;55902;-37.980;-63.602;2023-06-24T00:50:28;15.57;;;8.98;;
59960;SDS011;55902;-37.980;-63.602;2023-06-24T00:52:55;17.05;;;6.78;;
59960;SDS011;55902;-37.980;-63.602;2023-06-24T00:55:22;5.55;;;2.70;;
59960;SDS011;55902;-37.980;-63.602;2023-06-24T00:57:50;7.53;;;3.22;;
59960;SDS011;55902;-37.980;-63.602;2023-06-24T01:00:19;5.50;;;2.53;;
59960;SDS011;55902;-37.980;-63.602;2023-06-24T01:02:48;6.13;;;4.15;;
59960;SDS011;55902;-37.980;-63.602;2023-06-24T01:05:16;5.88;;;3.17;;
59960;SDS011;55902;-37.980;-63.602;2023-06-24T01:07:43;5.97;;;4.05;;
59960;SDS011;55902;-37.980;-63.602;2023-06-24T01:10:23;3.58;;;2.30;;
59960;SDS011;55902;-37.980;-63.602;2023-06-24T01:12:51;2.72;;;1.70;;
59960;SDS011;55902;-37.980;-63.602;2023-06-24T01:15:18;1.70;;;1.52;;
59960;SDS011;55902;-37.980;-63.602;2023-06-24T01:17:54;1.95;;;1.50;;
59960;SDS011;55902;-37.980;-63.602;2023-06-24T01:32:11;2.70;;;1.65;;
59960;SDS011;55902;-37.980;-63.602;2023-06-24T01:35:07;2.53;;;1.90;;
59960;SDS011;55902;-37.980;-63.602;2023-06-24T01:37:42;1.92;;;1.80;;
59960;SDS011;55902;-37.980;-63.602;2023-06-24T01:40:31;2.30;;;2.10;;
59960;SDS011;55902;-37.980;-63.602;2023-06-24T01:43:33;2.92;;;2.10;;
59960;SDS011;55902;-37.980;-63.602;2023-06-24T01:46:01;2.10;;;1.90;;
59960;SDS011;55902;-37.980;-63.602;2023-06-24T01:48:32;3.03;;;2.10;;
59960;SDS011;55902;-37.980;-63.602;2023-06-24T01:51:08;1.90;;;1.80;;
59960;SDS011;55902;-37.980;-63.602;2023-06-24T01:53:38;2.13;;;1.92;;
59960;SDS011;55902;-37.980;-63.602;2023-06-24T01:56:09;2.00;;;1.77;;
59960;SDS011;55902;-37.980;-63.602;2023-06-24T01:58:42;2.70;;;1.80;;
59960;SDS011;55902;-37.980;-63.602;2023-06-24T02:01:14;2.38;;;2.00;;
59960;SDS011;55902;-37.980;-63.602;2023-06-24T02:03:42;2.60;;;2.40;;
59960;SDS011;55902;-37.980;-63.602;2023-06-24T02:06:10;3.25;;;2.88;;
59960;SDS011;55902;-37.980;-63.602;2023-06-24T02:08:39;2.88;;;2.17;;
59960;SDS011;55902;-37.980;-63.602;2023-06-24T02:11:09;4.10;;;2.10;;
59960;SDS011;55902;-37.980;-63.602;2023-06-24T02:13:38;3.35;;;2.40;;
59960;SDS011;55902;-37.980;-63.602;2023-06-24T02:16:06;2.75;;;2.00;;
59960;SDS011;55902;-37.980;-63.602;2023-06-24T02:18:37;2.50;;;2.30;;
59960;SDS011;55902;-37.980;-63.602;2023-06-24T02:21:09;2.10;;;1.90;;
59960;SDS011;55902;-37.980;-63.602;2023-06-24T02:26:59;3.28;;;2.42;;
59960;SDS011;55902;-37.980;-63.602;2023-06-24T02:29:26;3.30;;;2.55;;
59960;SDS011;55902;-37.980;-63.602;2023-06-24T02:31:55;2.10;;;1.90;;
59960;SDS011;55902;-37.980;-63.602;2023-06-24T02:34:25;2.30;;;2.00;;
59960;SDS011;55902;-37.980;-63.602;2023-06-24T02:36:54;2.30;;;1.92;;
59960;SDS011;55902;-37.980;-63.602;2023-06-24T02:39:21;3.03;;;2.10;;
59960;SDS011;55902;-37.980;-63.602;2023-06-24T02:41:49;3.85;;;2.10;;
59960;SDS011;55902;-37.980;-63.602;2023-06-24T02:44:16;2.20;;;2.00;;
59960;SDS011;55902;-37.980;-63.602;2023-06-24T02:46:43;2.22;;;2.03;;
59960;SDS011;55902;-37.980;-63.602;2023-06-24T02:49:13;2.15;;;1.95;;
59960;SDS011;55902;-37.980;-63.602;2023-06-24T02:51:41;2.30;;;1.95;;
59960;SDS011;55902;-37.980;-63.602;2023-06-24T02:54:10;2.42;;;1.80;;
59960;SDS011;55902;-37.980;-63.602;2023-06-24T02:56:38;2.30;;;2.00;;
59960;SDS011;55902;-37.980;-63.602;2023-06-24T02:59:07;2.13;;;1.80;;
59960;SDS011;55902;-37.980;-63.602;2023-06-24T03:01:35;2.92;;;2.15;;
59960;SDS011;55902;-37.980;-63.602;2023-06-24T03:04:05;2.97;;;2.10;;
59960;SDS011;55902;-37.980;-63.602;2023-06-24T03:06:32;3.15;;;2.10;;
59960;SDS011;55902;-37.980;-63.602;2023-06-24T03:09:02;3.80;;;2.08;;
59960;SDS011;55902;-37.980;-63.602;2023-06-24T03:11:29;3.22;;;2.30;;
59960;SDS011;55902;-37.980;-63.602;2023-06-24T03:13:56;3.20;;;2.15;;
59960;SDS011;55902;-37.980;-63.602;2023-06-24T03:16:23;2.25;;;1.98;;
59960;SDS011;55902;-37.980;-63.602;2023-06-24T03:18:50;2.10;;;1.90;;
59960;SDS011;55902;-37.980;-63.602;2023-06-24T03:21:18;2.30;;;2.00;;
59960;SDS011;55902;-37.980;-63.602;2023-06-24T03:23:45;2.00;;;1.80;;
59960;SDS011;55902;-37.980;-63.602;2023-06-24T03:26:13;3.67;;;1.90;;
59960;SDS011;55902;-37.980;-63.602;2023-06-24T03:32:02;3.40;;;2.13;;
59960;SDS011;55902;-37.980;-63.602;2023-06-24T03:34:29;2.47;;;2.28;;
59960;SDS011;55902;-37.980;-63.602;2023-06-24T03:36:56;2.10;;;1.90;;
59960;SDS011;55902;-37.980;-63.602;2023-06-24T03:39:24;2.17;;;1.98;;
59960;SDS011;55902;-37.980;-63.602;2023-06-24T03:41:51;4.53;;;2.47;;
59960;SDS011;55902;-37.980;-63.602;2023-06-24T03:44:18;2.83;;;2.53;;
59960;SDS011;55902;-37.980;-63.602;2023-06-24T03:46:45;3.17;;;2.15;;
59960;SDS011;55902;-37.980;-63.602;2023-06-24T03:49:12;3.42;;;2.30;;
59960;SDS011;55902;-37.980;-63.602;2023-06-24T03:51:39;3.60;;;2.60;;
59960;SDS011;55902;-37.980;-63.602;2023-06-24T03:54:06;3.40;;;2.60;;
59960;SDS011;55902;-37.980;-63.602;2023-06-24T03:56:33;4.15;;;3.35;;
59960;SDS011;55902;-37.980;-63.602;2023-06-24T03:59:00;5.47;;;4.28;;
59960;SDS011;55902;-37.980;-63.602;2023-06-24T04:01:28;6.88;;;5.03;;
59960;SDS011;55902;-37.980;-63.602;2023-06-24T04:03:57;9.07;;;4.90;;
59960;SDS011;55902;-37.980;-63.602;2023-06-24T04:06:24;12.10;;;8.38;;
59960;SDS011;55902;-37.980;-63.602;2023-06-24T04:08:51;12.55;;;6.10;;
59960;SDS011;55902;-37.980;-63.602;2023-06-24T04:11:19;12.88;;;8.35;;
59960;SDS011;55902;-37.980;-63.602;2023-06-24T04:13:46;16.95;;;13.60;;
59960;SDS011;55902;-37.980;-63.602;2023-06-24T04:16:14;19.77;;;14.52;;
59960;SDS011;55902;-37.980;-63.602;2023-06-24T04:18:41;17.27;;;13.32;;
59960;SDS011;55902;-37.980;-63.602;2023-06-24T04:21:08;8.40;;;7.65;;
59960;SDS011;55902;-37.980;-63.602;2023-06-24T04:23:35;16.15;;;12.93;;
59960;SDS011;55902;-37.980;-63.602;2023-06-24T04:26:02;7.25;;;6.55;;
59960;SDS011;55902;-37.980;-63.602;2023-06-24T04:28:29;8.82;;;7.43;;
59960;SDS011;55902;-37.980;-63.602;2023-06-24T04:30:56;19.25;;;8.95;;
59960;SDS011;55902;-37.980;-63.602;2023-06-24T04:33:23;9.18;;;5.03;;
59960;SDS011;55902;-37.980;-63.602;2023-06-24T04:35:50;3.75;;;2.60;;
59960;SDS011;55902;-37.980;-63.602;2023-06-24T04:38:17;3.40;;;2.40;;
59960;SDS011;55902;-37.980;-63.602;2023-06-24T04:40:44;3.92;;;2.20;;
59960;SDS011;55902;-37.980;-63.602;2023-06-24T04:43:12;2.30;;;2.10;;
59960;SDS011;55902;-37.980;-63.602;2023-06-24T04:45:39;4.43;;;2.22;;
59960;SDS011;55902;-37.980;-63.602;2023-06-24T04:48:06;2.67;;;2.30;;
59960;SDS011;55902;-37.980;-63.602;2023-06-24T04:50:33;3.08;;;1.90;;
59960;SDS011;55902;-37.980;-63.602;2023-06-24T04:53:00;2.20;;;2.00;;
59960;SDS011;55902;-37.980;-63.602;2023-06-24T04:55:27;3.15;;;1.92;;
59960;SDS011;55902;-37.980;-63.602;2023-06-24T04:57:57;2.95;;;2.20;;
59960;SDS011;55902;-37.980;-63.602;2023-06-24T05:00:24;2.45;;;2.25;;
59960;SDS011;55902;-37.980;-63.602;2023-06-24T05:02:51;3.22;;;2.30;;
59960;SDS011;55902;-37.980;-63.602;2023-06-24T05:05:18;2.65;;;2.40;;
59960;SDS011;55902;-37.980;-63.602;2023-06-24T05:07:46;2.75;;;2.40;;
59960;SDS011;55902;-37.980;-63.602;2023-06-24T05:10:13;3.97;;;2.67;;
59960;SDS011;55902;-37.980;-63.602;2023-06-24T05:22:46;3.00;;;2.70;;
59960;SDS011;55902;-37.980;-63.602;2023-06-24T05:25:13;3.50;;;2.53;;
59960;SDS011;55902;-37.980;-63.602;2023-06-24T05:27:40;2.50;;;2.30;;
59960;SDS011;55902;-37.980;-63.602;2023-06-24T05:30:09;2.75;;;2.38;;
59960;SDS011;55902;-37.980;-63.602;2023-06-24T05:32:38;2.90;;;2.45;;
59960;SDS011;55902;-37.980;-63.602;2023-06-24T05:35:05;3.05;;;2.38;;
59960;SDS011;55902;-37.980;-63.602;2023-06-24T05:37:32;5.28;;;2.60;;
59960;SDS011;55902;-37.980;-63.602;2023-06-24T05:40:00;4.38;;;2.90;;
59960;SDS011;55902;-37.980;-63.602;2023-06-24T05:42:28;2.70;;;2.20;;
59960;SDS011;55902;-37.980;-63.602;2023-06-24T05:44:55;4.18;;;2.50;;
59960;SDS011;55902;-37.980;-63.602;2023-06-24T05:47:21;2.75;;;2.40;;
59960;SDS011;55902;-37.980;-63.602;2023-06-24T05:49:48;3.30;;;2.55;;
59960;SDS011;55902;-37.980;-63.602;2023-06-24T05:52:15;4.55;;;2.90;;
59960;SDS011;55902;-37.980;-63.602;2023-06-24T05:54:42;3.40;;;2.83;;
59960;SDS011;55902;-37.980;-63.602;2023-06-24T05:57:09;15.25;;;7.43;;
59960;SDS011;55902;-37.980;-63.602;2023-06-24T05:59:36;13.65;;;9.25;;
59960;SDS011;55902;-37.980;-63.602;2023-06-24T06:02:06;11.73;;;7.32;;
59960;SDS011;55902;-37.980;-63.602;2023-06-24T06:04:33;10.75;;;5.80;;
59960;SDS011;55902;-37.980;-63.602;2023-06-24T06:07:00;4.78;;;4.28;;
59960;SDS011;55902;-37.980;-63.602;2023-06-24T06:09:27;6.63;;;4.55;;
59960;SDS011;55902;-37.980;-63.602;2023-06-24T06:11:54;10.35;;;5.90;;
59960;SDS011;55902;-37.980;-63.602;2023-06-24T06:14:21;6.70;;;4.05;;
59960;SDS011;55902;-37.980;-63.602;2023-06-24T06:16:48;4.78;;;3.08;;
59960;SDS011;55902;-37.980;-63.602;2023-06-24T06:19:15;3.25;;;2.80;;
59960;SDS011;55902;-37.980;-63.602;2023-06-24T06:21:42;4.95;;;2.83;;
59960;SDS011;55902;-37.980;-63.602;2023-06-24T06:24:09;4.32;;;2.65;;
59960;SDS011;55902;-37.980;-63.602;2023-06-24T06:26:40;2.75;;;2.40;;
59960;SDS011;55902;-37.980;-63.602;2023-06-24T06:29:09;3.60;;;2.80;;
59960;SDS011;55902;-37.980;-63.602;2023-06-24T06:31:37;3.17;;;2.65;;
59960;SDS011;55902;-37.980;-63.602;2023-06-24T06:34:04;3.15;;;2.83;;
59960;SDS011;55902;-37.980;-63.602;2023-06-24T06:36:31;3.60;;;2.67;;
59960;SDS011;55902;-37.980;-63.602;2023-06-24T06:38:58;6.28;;;2.60;;
59960;SDS011;55902;-37.980;-63.602;2023-06-24T06:41:25;2.97;;;2.40;;
59960;SDS011;55902;-37.980;-63.602;2023-06-24T06:43:53;3.50;;;2.83;;
59960;SDS011;55902;-37.980;-63.602;2023-06-24T06:46:20;5.07;;;2.90;;
59960;SDS011;55902;-37.980;-63.602;2023-06-24T06:48:47;4.05;;;2.85;;
59960;SDS011;55902;-37.980;-63.602;2023-06-24T06:51:14;3.25;;;2.60;;
59960;SDS011;55902;-37.980;-63.602;2023-06-24T06:53:44;4.40;;;2.70;;
59960;SDS011;55902;-37.980;-63.602;2023-06-24T06:56:18;3.15;;;2.47;;
59960;SDS011;55902;-37.980;-63.602;2023-06-24T06:58:48;3.50;;;2.83;;
59960;SDS011;55902;-37.980;-63.602;2023-06-24T07:01:15;3.85;;;2.53;;
59960;SDS011;55902;-37.980;-63.602;2023-06-24T07:03:43;3.45;;;2.70;;
59960;SDS011;55902;-37.980;-63.602;2023-06-24T07:06:10;2.83;;;2.53;;
59960;SDS011;55902;-37.980;-63.602;2023-06-24T07:08:37;3.55;;;2.45;;
59960;SDS011;55902;-37.980;-63.602;2023-06-24T07:11:04;3.10;;;2.50;;
59960;SDS011;55902;-37.980;-63.602;2023-06-24T07:13:31;8.40;;;2.90;;
59960;SDS011;55902;-37.980;-63.602;2023-06-24T07:15:58;7.50;;;3.20;;
59960;SDS011;55902;-37.980;-63.602;2023-06-24T07:18:25;7.38;;;3.10;;
59960;SDS011;55902;-37.980;-63.602;2023-06-24T07:20:56;5.68;;;2.80;;
59960;SDS011;55902;-37.980;-63.602;2023-06-24T07:23:26;3.67;;;2.63;;
59960;SDS011;55902;-37.980;-63.602;2023-06-24T07:25:53;2.60;;;2.35;;
59960;SDS011;55902;-37.980;-63.602;2023-06-24T07:28:20;3.05;;;2.60;;
59960;SDS011;55902;-37.980;-63.602;2023-06-24T07:30:47;3.20;;;2.50;;
59960;SDS011;55902;-37.980;-63.602;2023-06-24T07:33:14;2.60;;;2.38;;
59960;SDS011;55902;-37.980;-63.602;2023-06-24T07:35:40;2.80;;;2.50;;
59960;SDS011;55902;-37.980;-63.602;2023-06-24T07:38:08;3.55;;;2.30;;
59960;SDS011;55902;-37.980;-63.602;2023-06-24T07:40:35;2.40;;;2.20;;
59960;SDS011;55902;-37.980;-63.602;2023-06-24T07:43:02;2.60;;;2.20;;
59960;SDS011;55902;-37.980;-63.602;2023-06-24T07:45:29;2.30;;;2.10;;
59960;SDS011;55902;-37.980;-63.602;2023-06-24T07:47:56;3.30;;;2.35;;
59960;SDS011;55902;-37.980;-63.602;2023-06-24T07:50:23;2.70;;;2.10;;
59960;SDS011;55902;-37.980;-63.602;2023-06-24T07:52:50;2.45;;;1.95;;
59960;SDS011;55902;-37.980;-63.602;2023-06-24T07:55:17;2.78;;;2.40;;
59960;SDS011;55902;-37.980;-63.602;2023-06-24T07:57:47;3.00;;;2.30;;
59960;SDS011;55902;-37.980;-63.602;2023-06-24T08:00:14;2.80;;;2.22;;
59960;SDS011;55902;-37.980;-63.602;2023-06-24T08:02:42;3.17;;;2.00;;
59960;SDS011;55902;-37.980;-63.602;2023-06-24T08:05:09;2.42;;;1.90;;
59960;SDS011;55902;-37.980;-63.602;2023-06-24T08:07:37;2.10;;;1.90;;
59960;SDS011;55902;-37.980;-63.602;2023-06-24T08:10:05;2.45;;;1.80;;
59960;SDS011;55902;-37.980;-63.602;2023-06-24T08:12:32;1.80;;;1.70;;
59960;SDS011;55902;-37.980;-63.602;2023-06-24T08:14:59;2.60;;;1.90;;
59960;SDS011;55902;-37.980;-63.602;2023-06-24T08:17:26;3.40;;;1.88;;
59960;SDS011;55902;-37.980;-63.602;2023-06-24T08:19:53;1.95;;;1.83;;
59960;SDS011;55902;-37.980;-63.602;2023-06-24T08:22:20;2.03;;;1.70;;
59960;SDS011;55902;-37.980;-63.602;2023-06-24T08:24:47;2.03;;;1.83;;
59960;SDS011;55902;-37.980;-63.602;2023-06-24T08:27:14;2.50;;;2.03;;
59960;SDS011;55902;-37.980;-63.602;2023-06-24T08:29:41;1.90;;;1.80;;
59960;SDS011;55902;-37.980;-63.602;2023-06-24T08:32:08;2.20;;;2.00;;
59960;SDS011;55902;-37.980;-63.602;2023-06-24T08:34:35;2.42;;;2.10;;
59960;SDS011;55902;-37.980;-63.602;2023-06-24T08:37:02;3.15;;;2.38;;
59960;SDS011;55902;-37.980;-63.602;2023-06-24T08:39:29;2.60;;;2.40;;
59960;SDS011;55902;-37.980;-63.602;2023-06-24T08:41:56;2.55;;;2.30;;
59960;SDS011;55902;-37.980;-63.602;2023-06-24T08:44:23;3.17;;;2.40;;
59960;SDS011;55902;-37.980;-63.602;2023-06-24T08:46:50;3.25;;;2.40;;
59960;SDS011;55902;-37.980;-63.602;2023-06-24T08:49:25;2.92;;;2.33;;
59960;SDS011;55902;-37.980;-63.602;2023-06-24T08:54:35;3.33;;;2.88;;
59960;SDS011;55902;-37.980;-63.602;2023-06-24T08:57:04;3.20;;;2.90;;
59960;SDS011;55902;-37.980;-63.602;2023-06-24T08:59:36;3.67;;;2.70;;
59960;SDS011;55902;-37.980;-63.602;2023-06-24T09:02:04;4.13;;;3.00;;
59960;SDS011;55902;-37.980;-63.602;2023-06-24T09:04:31;3.97;;;2.80;;
59960;SDS011;55902;-37.980;-63.602;2023-06-24T09:06:58;3.13;;;2.83;;
59960;SDS011;55902;-37.980;-63.602;2023-06-24T09:09:25;4.70;;;2.90;;
59960;SDS011;55902;-37.980;-63.602;2023-06-24T09:11:57;3.33;;;3.00;;
59960;SDS011;55902;-37.980;-63.602;2023-06-24T09:14:26;3.72;;;2.78;;
59960;SDS011;55902;-37.980;-63.602;2023-06-24T09:16:56;3.15;;;2.85;;
59960;SDS011;55902;-37.980;-63.602;2023-06-24T09:19:26;3.83;;;3.00;;
59960;SDS011;55902;-37.980;-63.602;2023-06-24T09:22:02;3.28;;;2.97;;
59960;SDS011;55902;-37.980;-63.602;2023-06-24T09:24:33;3.47;;;3.17;;
59960;SDS011;55902;-37.980;-63.602;2023-06-24T09:27:02;4.20;;;3.35;;
59960;SDS011;55902;-37.980;-63.602;2023-06-24T09:29:33;3.83;;;3.30;;
59960;SDS011;55902;-37.980;-63.602;2023-06-24T09:32:05;3.45;;;3.15;;
59960;SDS011;55902;-37.980;-63.602;2023-06-24T09:34:32;4.75;;;3.50;;
59960;SDS011;55902;-37.980;-63.602;2023-06-24T09:37:00;3.55;;;3.25;;
59960;SDS011;55902;-37.980;-63.602;2023-06-24T09:39:28;3.80;;;3.40;;
59960;SDS011;55902;-37.980;-63.602;2023-06-24T09:42:05;3.80;;;3.40;;
59960;SDS011;55902;-37.980;-63.602;2023-06-24T09:44:33;4.75;;;3.35;;
59960;SDS011;55902;-37.980;-63.602;2023-06-24T09:47:00;3.70;;;3.30;;
59960;SDS011;55902;-37.980;-63.602;2023-06-24T09:49:28;4.30;;;3.13;;
59960;SDS011;55902;-37.980;-63.602;2023-06-24T09:51:56;3.17;;;2.88;;
59960;SDS011;55902;-37.980;-63.602;2023-06-24T09:54:27;3.70;;;3.10;;
59960;SDS011;55902;-37.980;-63.602;2023-06-24T09:56:56;3.60;;;3.10;;
59960;SDS011;55902;-37.980;-63.602;2023-06-24T09:59:27;4.13;;;3.13;;
59960;SDS011;55902;-37.980;-63.602;2023-06-24T10:01:56;4.65;;;3.42;;
59960;SDS011;55902;-37.980;-63.602;2023-06-24T10:04:24;3.92;;;3.47;;
59960;SDS011;55902;-37.980;-63.602;2023-06-24T10:06:53;6.15;;;3.72;;
59960;SDS011;55902;-37.980;-63.602;2023-06-24T10:09:21;4.47;;;3.70;;
59960;SDS011;55902;-37.980;-63.602;2023-06-24T10:11:47;4.00;;;3.47;;
59960;SDS011;55902;-37.980;-63.602;2023-06-24T10:14:15;5.57;;;3.90;;
59960;SDS011;55902;-37.980;-63.602;2023-06-24T10:16:42;4.90;;;3.65;;
59960;SDS011;55902;-37.980;-63.602;2023-06-24T10:19:10;4.10;;;3.70;;
59960;SDS011;55902;-37.980;-63.602;2023-06-24T10:21:45;4.57;;;3.72;;
59960;SDS011;55902;-37.980;-63.602;2023-06-24T10:27:07;4.82;;;3.70;;
59960;SDS011;55902;-37.980;-63.602;2023-06-24T10:29:39;6.40;;;4.00;;
59960;SDS011;55902;-37.980;-63.602;2023-06-24T10:32:12;4.95;;;3.90;;
59960;SDS011;55902;-37.980;-63.602;2023-06-24T10:34:45;6.05;;;4.30;;
59960;SDS011;55902;-37.980;-63.602;2023-06-24T10:39:53;4.90;;;3.90;;
59960;SDS011;55902;-37.980;-63.602;2023-06-24T10:50:13;7.37;;;3.97;;
59960;SDS011;55902;-37.980;-63.602;2023-06-24T10:52:42;5.80;;;4.13;;
59960;SDS011;55902;-37.980;-63.602;2023-06-24T10:55:13;4.05;;;3.55;;
59960;SDS011;55902;-37.980;-63.602;2023-06-24T10:57:42;5.82;;;4.07;;
59960;SDS011;55902;-37.980;-63.602;2023-06-24T11:00:10;4.82;;;3.88;;
59960;SDS011;55902;-37.980;-63.602;2023-06-24T11:02:41;5.53;;;3.70;;
59960;SDS011;55902;-37.980;-63.602;2023-06-24T11:05:08;6.80;;;4.15;;
59960;SDS011;55902;-37.980;-63.602;2023-06-24T11:07:36;5.18;;;3.90;;
59960;SDS011;55902;-37.980;-63.602;2023-06-24T11:10:05;7.50;;;4.47;;
59960;SDS011;55902;-37.980;-63.602;2023-06-24T11:12:36;5.43;;;4.07;;
59960;SDS011;55902;-37.980;-63.602;2023-06-24T11:15:05;6.53;;;4.15;;
59960;SDS011;55902;-37.980;-63.602;2023-06-24T11:17:34;5.88;;;4.00;;
59960;SDS011;55902;-37.980;-63.602;2023-06-24T11:20:02;5.00;;;3.42;;
59960;SDS011;55902;-37.980;-63.602;2023-06-24T11:22:34;6.03;;;3.60;;
59960;SDS011;55902;-37.980;-63.602;2023-06-24T11:25:01;6.15;;;3.90;;
59960;SDS011;55902;-37.980;-63.602;2023-06-24T11:31:30;9.13;;;5.75;;
59960;SDS011;55902;-37.980;-63.602;2023-06-24T11:33:58;6.32;;;3.90;;
59960;SDS011;55902;-37.980;-63.602;2023-06-24T11:36:25;4.90;;;3.42;;
59960;SDS011;55902;-37.980;-63.602;2023-06-24T11:38:52;5.38;;;3.17;;
59960;SDS011;55902;-37.980;-63.602;2023-06-24T11:41:20;4.22;;;3.28;;
59960;SDS011;55902;-37.980;-63.602;2023-06-24T11:43:48;3.67;;;3.20;;
59960;SDS011;55902;-37.980;-63.602;2023-06-24T11:46:23;3.22;;;2.92;;
59960;SDS011;55902;-37.980;-63.602;2023-06-24T11:48:51;5.28;;;3.83;;
59960;SDS011;55902;-37.980;-63.602;2023-06-24T11:51:28;5.05;;;4.50;;
59960;SDS011;55902;-37.980;-63.602;2023-06-24T11:53:58;5.15;;;3.70;;
59960;SDS011;55902;-37.980;-63.602;2023-06-24T11:56:35;4.05;;;3.25;;
59960;SDS011;55902;-37.980;-63.602;2023-06-24T11:59:45;6.82;;;3.28;;
59960;SDS011;55902;-37.980;-63.602;2023-06-24T12:01:53;3.10;;;2.80;;
59960;SDS011;55902;-37.980;-63.602;2023-06-24T12:04:27;3.92;;;3.13;;
59960;SDS011;55902;-37.980;-63.602;2023-06-24T12:06:54;4.18;;;3.03;;
59960;SDS011;55902;-37.980;-63.602;2023-06-24T12:09:22;3.60;;;2.80;;
59960;SDS011;55902;-37.980;-63.602;2023-06-24T12:11:52;4.10;;;2.67;;
59960;SDS011;55902;-37.980;-63.602;2023-06-24T12:14:19;2.72;;;2.22;;
59960;SDS011;55902;-37.980;-63.602;2023-06-24T12:16:46;2.92;;;2.58;;
59960;SDS011;55902;-37.980;-63.602;2023-06-24T12:19:13;3.08;;;2.30;;
59960;SDS011;55902;-37.980;-63.602;2023-06-24T12:21:41;2.70;;;2.20;;
59960;SDS011;55902;-37.980;-63.602;2023-06-24T12:24:08;3.15;;;2.63;;
59960;SDS011;55902;-37.980;-63.602;2023-06-24T12:26:35;2.97;;;2.38;;
59960;SDS011;55902;-37.980;-63.602;2023-06-24T12:29:02;3.03;;;2.55;;
59960;SDS011;55902;-37.980;-63.602;2023-06-24T12:31:30;3.25;;;2.50;;
59960;SDS011;55902;-37.980;-63.602;2023-06-24T12:33:57;3.13;;;2.30;;
59960;SDS011;55902;-37.980;-63.602;2023-06-24T12:36:24;3.85;;;2.78;;
59960;SDS011;55902;-37.980;-63.602;2023-06-24T12:38:51;4.47;;;2.65;;
59960;SDS011;55902;-37.980;-63.602;2023-06-24T12:41:18;2.45;;;2.25;;
59960;SDS011;55902;-37.980;-63.602;2023-06-24T12:43:45;2.53;;;2.22;;
59960;SDS011;55902;-37.980;-63.602;2023-06-24T12:46:12;3.35;;;2.65;;
59960;SDS011;55902;-37.980;-63.602;2023-06-24T12:48:39;2.80;;;2.50;;
59960;SDS011;55902;-37.980;-63.602;2023-06-24T12:51:06;2.53;;;2.33;;
59960;SDS011;55902;-37.980;-63.602;2023-06-24T12:53:33;3.13;;;2.20;;
59960;SDS011;55902;-37.980;-63.602;2023-06-24T12:56:00;2.08;;;1.88;;
59960;SDS011;55902;-37.980;-63.602;2023-06-24T12:58:27;2.05;;;1.90;;
59960;SDS011;55902;-37.980;-63.602;2023-06-24T13:00:54;2.88;;;2.67;;
59960;SDS011;55902;-37.980;-63.602;2023-06-24T13:03:21;3.00;;;2.70;;
59960;SDS011;55902;-37.980;-63.602;2023-06-24T13:05:48;3.20;;;2.90;;
59960;SDS011;55902;-37.980;-63.602;2023-06-24T13:08:15;3.28;;;2.72;;
59960;SDS011;55902;-37.980;-63.602;2023-06-24T13:10:42;2.70;;;2.50;;
59960;SDS011;55902;-37.980;-63.602;2023-06-24T13:13:09;2.50;;;2.30;;
59960;SDS011;55902;-37.980;-63.602;2023-06-24T13:15:36;2.80;;;2.20;;
59960;SDS011;55902;-37.980;-63.602;2023-06-24T13:18:03;3.38;;;2.72;;
59960;SDS011;55902;-37.980;-63.602;2023-06-24T13:20:30;3.50;;;3.20;;
59960;SDS011;55902;-37.980;-63.602;2023-06-24T13:23:00;2.40;;;2.20;;
59960;SDS011;55902;-37.980;-63.602;2023-06-24T13:25:27;2.40;;;2.20;;
59960;SDS011;55902;-37.980;-63.602;2023-06-24T13:27:54;2.55;;;2.00;;
59960;SDS011;55902;-37.980;-63.602;2023-06-24T13:30:22;2.20;;;2.00;;
59960;SDS011;55902;-37.980;-63.602;2023-06-24T13:32:49;3.13;;;1.80;;
59960;SDS011;55902;-37.980;-63.602;2023-06-24T13:35:16;2.40;;;1.80;;
59960;SDS011;55902;-37.980;-63.602;2023-06-24T13:37:43;1.80;;;1.70;;
59960;SDS011;55902;-37.980;-63.602;2023-06-24T13:40:10;1.70;;;1.60;;
59960;SDS011;55902;-37.980;-63.602;2023-06-24T13:42:38;1.90;;;1.80;;
59960;SDS011;55902;-37.980;-63.602;2023-06-24T13:48:26;2.20;;;1.70;;
59960;SDS011;55902;-37.980;-63.602;2023-06-24T13:50:53;1.92;;;1.70;;
59960;SDS011;55902;-37.980;-63.602;2023-06-24T13:53:20;2.20;;;1.60;;
59960;SDS011;55902;-37.980;-63.602;2023-06-24T13:55:47;1.60;;;1.50;;
59960;SDS011;55902;-37.980;-63.602;2023-06-24T13:58:15;1.67;;;1.58;;
59960;SDS011;55902;-37.980;-63.602;2023-06-24T14:00:42;2.00;;;1.80;;
59960;SDS011;55902;-37.980;-63.602;2023-06-24T14:03:09;1.90;;;1.80;;
59960;SDS011;55902;-37.980;-63.602;2023-06-24T14:05:36;3.08;;;2.78;;
59960;SDS011;55902;-37.980;-63.602;2023-06-24T14:08:05;2.67;;;1.70;;
59960;SDS011;55902;-37.980;-63.602;2023-06-24T14:10:32;1.92;;;1.80;;
59960;SDS011;55902;-37.980;-63.602;2023-06-24T14:12:59;2.33;;;2.00;;
59960;SDS011;55902;-37.980;-63.602;2023-06-24T14:15:26;2.03;;;1.65;;
59960;SDS011;55902;-37.980;-63.602;2023-06-24T14:17:57;2.35;;;1.80;;
59960;SDS011;55902;-37.980;-63.602;2023-06-24T14:20:24;1.98;;;1.58;;
59960;SDS011;55902;-37.980;-63.602;2023-06-24T14:22:51;1.70;;;1.60;;
59960;SDS011;55902;-37.980;-63.602;2023-06-24T14:25:18;2.55;;;2.35;;
59960;SDS011;55902;-37.980;-63.602;2023-06-24T14:27:45;1.90;;;1.70;;
59960;SDS011;55902;-37.980;-63.602;2023-06-24T14:30:12;2.05;;;1.70;;
59960;SDS011;55902;-37.980;-63.602;2023-06-24T14:32:39;2.20;;;2.00;;
59960;SDS011;55902;-37.980;-63.602;2023-06-24T14:35:07;1.92;;;1.80;;
59960;SDS011;55902;-37.980;-63.602;2023-06-24T14:37:35;2.38;;;1.90;;
59960;SDS011;55902;-37.980;-63.602;2023-06-24T14:40:03;1.95;;;1.80;;
59960;SDS011;55902;-37.980;-63.602;2023-06-24T14:42:30;2.72;;;1.90;;
59960;SDS011;55902;-37.980;-63.602;2023-06-24T14:44:57;2.28;;;1.90;;
59960;SDS011;55902;-37.980;-63.602;2023-06-24T14:47:24;2.63;;;2.42;;
59960;SDS011;55902;-37.980;-63.602;2023-06-24T14:49:51;3.28;;;2.88;;
59960;SDS011;55902;-37.980;-63.602;2023-06-24T14:52:18;2.40;;;2.10;;
59960;SDS011;55902;-37.980;-63.602;2023-06-24T14:54:48;2.53;;;2.33;;
59960;SDS011;55902;-37.980;-63.602;2023-06-24T14:57:15;2.90;;;2.58;;
59960;SDS011;55902;-37.980;-63.602;2023-06-24T14:59:42;4.75;;;3.00;;
59960;SDS011;55902;-37.980;-63.602;2023-06-24T15:02:09;5.70;;;4.15;;
59960;SDS011;55902;-37.980;-63.602;2023-06-24T15:04:36;6.35;;;5.18;;
59960;SDS011;55902;-37.980;-63.602;2023-06-24T15:07:04;6.97;;;4.90;;
59960;SDS011;55902;-37.980;-63.602;2023-06-24T15:09:31;6.88;;;5.18;;
59960;SDS011;55902;-37.980;-63.602;2023-06-24T15:11:59;6.78;;;4.82;;
59960;SDS011;55902;-37.980;-63.602;2023-06-24T15:14:27;7.65;;;5.72;;
59960;SDS011;55902;-37.980;-63.602;2023-06-24T15:16:54;7.43;;;5.60;;